sensor_id;sensor_type;location;lat;lon;timestamp;pressure;altitude;pressure_sealevel;temperature
32039;BMP280;18549;42.286;22.688;2023-06-24T00:01:44;95612.75;;;27.47
32039;BMP280;18549;42.286;22.688;2023-06-24T00:04:11;95609.44;;;27.47
32039;BMP280;18549;42.286;22.688;2023-06-24T00:06:40;95602.97;;;27.44
32039;BMP280;18549;42.286;22.688;2023-06-24T00:09:08;95601.41;;;27.43
32039;BMP280;18549;42.286;22.688;2023-06-24T00:11:36;95603.94;;;27.43
32039;BMP280;18549;42.286;22.688;2023-06-24T00:14:04;95602.59;;;27.41
32039;BMP280;18549;42.286;22.688;2023-06-24T00:16:32;95602.81;;;27.39
32039;BMP280;18549;42.286;22.688;2023-06-24T00:18:59;95602.97;;;27.38
32039;BMP280;18549;42.286;22.688;2023-06-24T00:21:28;95601.59;;;27.35
32039;BMP280;18549;42.286;22.688;2023-06-24T00:23:56;95603.56;;;27.33
32039;BMP280;18549;42.286;22.688;2023-06-24T00:26:24;95592.78;;;27.31
32039;BMP280;18549;42.286;22.688;2023-06-24T00:28:53;95596.50;;;27.29
32039;BMP280;18549;42.286;22.688;2023-06-24T00:31:20;95597.69;;;27.26
32039;BMP280;18549;42.286;22.688;2023-06-24T00:33:48;95591.59;;;27.27
32039;BMP280;18549;42.286;22.688;2023-06-24T00:36:17;95589.09;;;27.15
32039;BMP280;18549;42.286;22.688;2023-06-24T00:38:45;95580.09;;;27.06
32039;BMP280;18549;42.286;22.688;2023-06-24T00:41:16;95567.56;;;27.04
32039;BMP280;18549;42.286;22.688;2023-06-24T00:43:44;95569.50;;;27.02
32039;BMP280;18549;42.286;22.688;2023-06-24T00:46:13;95586.75;;;26.94
32039;BMP280;18549;42.286;22.688;2023-06-24T00:48:41;95598.47;;;26.95
32039;BMP280;18549;42.286;22.688;2023-06-24T00:51:09;95599.66;;;26.99
32039;BMP280;18549;42.286;22.688;2023-06-24T00:53:36;95594.94;;;27.02
32039;BMP280;18549;42.286;22.688;2023-06-24T00:56:05;95594.56;;;26.99
32039;BMP280;18549;42.286;22.688;2023-06-24T00:58:34;95601.22;;;27.00
32039;BMP280;18549;42.286;22.688;2023-06-24T01:01:02;95606.13;;;26.95
32039;BMP280;18549;42.286;22.688;2023-06-24T01:03:33;95611.19;;;26.95
32039;BMP280;18549;42.286;22.688;2023-06-24T01:06:00;95619.22;;;26.92
32039;BMP280;18549;42.286;22.688;2023-06-24T01:08:28;95615.31;;;26.89
32039;BMP280;18549;42.286;22.688;2023-06-24T01:10:55;95625.69;;;26.88
32039;BMP280;18549;42.286;22.688;2023-06-24T01:13:22;95625.09;;;26.86
32039;BMP280;18549;42.286;22.688;2023-06-24T01:15:50;95628.22;;;26.88
32039;BMP280;18549;42.286;22.688;2023-06-24T01:18:21;95623.12;;;26.88
32039;BMP280;18549;42.286;22.688;2023-06-24T01:20:56;95624.13;;;26.87
32039;BMP280;18549;42.286;22.688;2023-06-24T01:26:32;95630.56;;;26.83
32039;BMP280;18549;42.286;22.688;2023-06-24T01:29:25;95630.38;;;26.85
32039;BMP280;18549;42.286;22.688;2023-06-24T01:32:03;95633.28;;;26.82
32039;BMP280;18549;42.286;22.688;2023-06-24T01:34:35;95635.06;;;26.81
32039;BMP280;18549;42.286;22.688;2023-06-24T01:37:12;95636.66;;;26.82
32039;BMP280;18549;42.286;22.688;2023-06-24T01:39:46;95623.94;;;26.82
32039;BMP280;18549;42.286;22.688;2023-06-24T01:42:16;95624.66;;;26.76
32039;BMP280;18549;42.286;22.688;2023-06-24T01:44:45;95628.19;;;26.75
32039;BMP280;18549;42.286;22.688;2023-06-24T01:47:18;95635.22;;;26.73
32039;BMP280;18549;42.286;22.688;2023-06-24T01:49:47;95623.47;;;26.72
32039;BMP280;18549;42.286;22.688;2023-06-24T01:52:18;95628.56;;;26.72
32039;BMP280;18549;42.286;22.688;2023-06-24T01:54:49;95642.66;;;26.68
32039;BMP280;18549;42.286;22.688;2023-06-24T01:57:17;95637.34;;;26.63
32039;BMP280;18549;42.286;22.688;2023-06-24T01:59:45;95629.72;;;26.63
32039;BMP280;18549;42.286;22.688;2023-06-24T02:02:15;95631.66;;;26.49
32039;BMP280;18549;42.286;22.688;2023-06-24T02:04:45;95642.22;;;26.46
32039;BMP280;18549;42.286;22.688;2023-06-24T02:07:14;95651.22;;;26.48
32039;BMP280;18549;42.286;22.688;2023-06-24T02:09:43;95643.16;;;26.45
32039;BMP280;18549;42.286;22.688;2023-06-24T02:12:11;95645.12;;;26.43
32039;BMP280;18549;42.286;22.688;2023-06-24T02:14:39;95649.25;;;26.44
32039;BMP280;18549;42.286;22.688;2023-06-24T02:17:09;95642.56;;;26.43
32039;BMP280;18549;42.286;22.688;2023-06-24T02:19:39;95642.78;;;26.41
32039;BMP280;18549;42.286;22.688;2023-06-24T02:22:07;95645.50;;;26.40
32039;BMP280;18549;42.286;22.688;2023-06-24T02:24:36;95650.59;;;26.40
32039;BMP280;18549;42.286;22.688;2023-06-24T02:27:06;95651.97;;;26.42
32039;BMP280;18549;42.286;22.688;2023-06-24T02:29:36;95647.66;;;26.43
32039;BMP280;18549;42.286;22.688;2023-06-24T02:32:06;95647.47;;;26.44
32039;BMP280;18549;42.286;22.688;2023-06-24T02:34:33;95655.09;;;26.44
32039;BMP280;18549;42.286;22.688;2023-06-24T02:37:03;95661.94;;;26.44
32039;BMP280;18549;42.286;22.688;2023-06-24T02:39:31;95659.41;;;26.44
32039;BMP280;18549;42.286;22.688;2023-06-24T02:41:58;95665.66;;;26.41
32039;BMP280;18549;42.286;22.688;2023-06-24T02:44:26;95674.06;;;26.42
32039;BMP280;18549;42.286;22.688;2023-06-24T02:46:53;95678.38;;;26.41
32039;BMP280;18549;42.286;22.688;2023-06-24T02:49:21;95682.06;;;26.39
32039;BMP280;18549;42.286;22.688;2023-06-24T02:51:49;95682.25;;;26.37
32039;BMP280;18549;42.286;22.688;2023-06-24T02:54:18;95690.66;;;26.38
32039;BMP280;18549;42.286;22.688;2023-06-24T02:56:46;95697.69;;;26.36
32039;BMP280;18549;42.286;22.688;2023-06-24T02:59:14;95696.31;;;26.33
32039;BMP280;18549;42.286;22.688;2023-06-24T03:01:41;95701.00;;;26.30
32039;BMP280;18549;42.286;22.688;2023-06-24T03:04:11;95696.66;;;26.24
32039;BMP280;18549;42.286;22.688;2023-06-24T03:06:40;95690.59;;;26.19
32039;BMP280;18549;42.286;22.688;2023-06-24T03:09:07;95694.91;;;26.18
32039;BMP280;18549;42.286;22.688;2023-06-24T03:11:42;95694.44;;;26.15
32039;BMP280;18549;42.286;22.688;2023-06-24T03:14:09;95702.22;;;26.07
32039;BMP280;18549;42.286;22.688;2023-06-24T03:16:37;95698.31;;;26.04
32039;BMP280;18549;42.286;22.688;2023-06-24T03:19:05;95698.66;;;26.01
32039;BMP280;18549;42.286;22.688;2023-06-24T03:21:32;95705.69;;;25.99
32039;BMP280;18549;42.286;22.688;2023-06-24T03:24:00;95707.22;;;25.94
32039;BMP280;18549;42.286;22.688;2023-06-24T03:26:32;95709.94;;;25.86
32039;BMP280;18549;42.286;22.688;2023-06-24T03:29:01;95718.28;;;25.80
32039;BMP280;18549;42.286;22.688;2023-06-24T03:31:29;95726.28;;;25.77
32039;BMP280;18549;42.286;22.688;2023-06-24T03:33:56;95727.84;;;25.78
32039;BMP280;18549;42.286;22.688;2023-06-24T03:36:24;95720.81;;;25.80
32039;BMP280;18549;42.286;22.688;2023-06-24T03:38:51;95724.75;;;25.83
32039;BMP280;18549;42.286;22.688;2023-06-24T03:41:18;95718.50;;;25.85
32039;BMP280;18549;42.286;22.688;2023-06-24T03:43:46;95723.41;;;25.86
32039;BMP280;18549;42.286;22.688;2023-06-24T03:46:15;95710.09;;;25.85
32039;BMP280;18549;42.286;22.688;2023-06-24T03:48:43;95705.19;;;25.83
32039;BMP280;18549;42.286;22.688;2023-06-24T03:51:11;95721.41;;;25.82
32039;BMP280;18549;42.286;22.688;2023-06-24T03:53:38;95723.75;;;25.84
32039;BMP280;18549;42.286;22.688;2023-06-24T03:56:05;95729.81;;;25.83
32039;BMP280;18549;42.286;22.688;2023-06-24T03:58:33;95733.34;;;25.82
32039;BMP280;18549;42.286;22.688;2023-06-24T04:01:01;95734.13;;;25.82
32039;BMP280;18549;42.286;22.688;2023-06-24T04:03:30;95730.59;;;25.83
32039;BMP280;18549;42.286;22.688;2023-06-24T04:05:58;95730.97;;;25.80
32039;BMP280;18549;42.286;22.688;2023-06-24T04:08:27;95725.03;;;25.67
32039;BMP280;18549;42.286;22.688;2023-06-24T04:10:55;95716.19;;;25.56
32039;BMP280;18549;42.286;22.688;2023-06-24T04:13:22;95722.25;;;25.62
32039;BMP280;18549;42.286;22.688;2023-06-24T04:15:50;95726.94;;;25.65
32039;BMP280;18549;42.286;22.688;2023-06-24T04:18:18;95730.09;;;25.67
32039;BMP280;18549;42.286;22.688;2023-06-24T04:20:47;95738.31;;;25.69
32039;BMP280;18549;42.286;22.688;2023-06-24T04:23:15;95737.94;;;25.72
32039;BMP280;18549;42.286;22.688;2023-06-24T04:25:42;95744.22;;;25.76
32039;BMP280;18549;42.286;22.688;2023-06-24T04:28:09;95742.28;;;25.78
32039;BMP280;18549;42.286;22.688;2023-06-24T04:30:37;95742.13;;;25.79
32039;BMP280;18549;42.286;22.688;2023-06-24T04:33:05;95736.84;;;25.81
32039;BMP280;18549;42.286;22.688;2023-06-24T04:35:32;95735.50;;;25.85
32039;BMP280;18549;42.286;22.688;2023-06-24T04:38:01;95736.84;;;25.81
32039;BMP280;18549;42.286;22.688;2023-06-24T04:40:28;95737.59;;;25.81
32039;BMP280;18549;42.286;22.688;2023-06-24T04:42:56;95731.97;;;25.85
32039;BMP280;18549;42.286;22.688;2023-06-24T04:45:23;95744.31;;;25.88
32039;BMP280;18549;42.286;22.688;2023-06-24T04:47:51;95740.41;;;25.92
32039;BMP280;18549;42.286;22.688;2023-06-24T04:50:19;95737.53;;;25.95
32039;BMP280;18549;42.286;22.688;2023-06-24T04:52:52;95742.22;;;25.98
32039;BMP280;18549;42.286;22.688;2023-06-24T04:55:22;95734.59;;;25.98
32039;BMP280;18549;42.286;22.688;2023-06-24T04:57:50;95741.06;;;26.01
32039;BMP280;18549;42.286;22.688;2023-06-24T05:00:18;95745.00;;;26.03
32039;BMP280;18549;42.286;22.688;2023-06-24T05:02:48;95742.28;;;26.05
32039;BMP280;18549;42.286;22.688;2023-06-24T05:05:16;95742.63;;;26.02
32039;BMP280;18549;42.286;22.688;2023-06-24T05:07:43;95743.44;;;26.02
32039;BMP280;18549;42.286;22.688;2023-06-24T05:10:11;95730.13;;;26.00
32039;BMP280;18549;42.286;22.688;2023-06-24T05:12:40;95733.41;;;25.94
32039;BMP280;18549;42.286;22.688;2023-06-24T05:15:08;95735.34;;;25.92
32039;BMP280;18549;42.286;22.688;2023-06-24T05:17:35;95731.63;;;25.88
32039;BMP280;18549;42.286;22.688;2023-06-24T05:20:03;95733.00;;;25.91
32039;BMP280;18549;42.286;22.688;2023-06-24T05:22:31;95736.72;;;25.95
32039;BMP280;18549;42.286;22.688;2023-06-24T05:24:58;95746.31;;;25.99
32039;BMP280;18549;42.286;22.688;2023-06-24T05:27:26;95745.75;;;25.97
32039;BMP280;18549;42.286;22.688;2023-06-24T05:29:55;95730.13;;;26.00
32039;BMP280;18549;42.286;22.688;2023-06-24T05:32:22;95729.38;;;26.06
32039;BMP280;18549;42.286;22.688;2023-06-24T05:34:50;95726.81;;;26.06
32039;BMP280;18549;42.286;22.688;2023-06-24T05:37:17;95736.03;;;26.07
32039;BMP280;18549;42.286;22.688;2023-06-24T05:39:44;95732.72;;;26.07
32039;BMP280;18549;42.286;22.688;2023-06-24T05:42:12;95735.22;;;26.00
32039;BMP280;18549;42.286;22.688;2023-06-24T05:44:39;95728.00;;;26.04
32039;BMP280;18549;42.286;22.688;2023-06-24T05:47:08;95728.41;;;26.07
32039;BMP280;18549;42.286;22.688;2023-06-24T05:49:35;95728.41;;;26.07
32039;BMP280;18549;42.286;22.688;2023-06-24T05:52:03;95724.50;;;26.05
32039;BMP280;18549;42.286;22.688;2023-06-24T05:54:31;95725.87;;;26.07
32039;BMP280;18549;42.286;22.688;2023-06-24T05:56:58;95722.00;;;26.11
32039;BMP280;18549;42.286;22.688;2023-06-24T05:59:26;95723.03;;;26.17
32039;BMP280;18549;42.286;22.688;2023-06-24T06:01:53;95723.16;;;26.15
32039;BMP280;18549;42.286;22.688;2023-06-24T06:04:22;95721.06;;;26.19
32039;BMP280;18549;42.286;22.688;2023-06-24T06:06:49;95726.56;;;26.22
32039;BMP280;18549;42.286;22.688;2023-06-24T06:09:17;95726.94;;;26.19
32039;BMP280;18549;42.286;22.688;2023-06-24T06:11:44;95730.69;;;26.23
32039;BMP280;18549;42.286;22.688;2023-06-24T06:14:11;95725.37;;;26.18
32039;BMP280;18549;42.286;22.688;2023-06-24T06:16:38;95730.06;;;26.21
32039;BMP280;18549;42.286;22.688;2023-06-24T06:19:06;95721.25;;;26.17
32039;BMP280;18549;42.286;22.688;2023-06-24T06:21:36;95725.16;;;26.19
32039;BMP280;18549;42.286;22.688;2023-06-24T06:24:04;95725.59;;;26.23
32039;BMP280;18549;42.286;22.688;2023-06-24T06:26:32;95716.59;;;26.27
32039;BMP280;18549;42.286;22.688;2023-06-24T06:28:59;95718.19;;;26.28
32039;BMP280;18549;42.286;22.688;2023-06-24T06:31:26;95720.13;;;26.26
32039;BMP280;18549;42.286;22.688;2023-06-24T06:33:54;95718.75;;;26.23
32039;BMP280;18549;42.286;22.688;2023-06-24T06:36:21;95722.03;;;26.18
32039;BMP280;18549;42.286;22.688;2023-06-24T06:38:50;95721.88;;;26.25
32039;BMP280;18549;42.286;22.688;2023-06-24T06:41:17;95719.69;;;26.16
32039;BMP280;18549;42.286;22.688;2023-06-24T06:43:50;95711.31;;;26.22
32039;BMP280;18549;42.286;22.688;2023-06-24T06:46:17;95714.31;;;26.32
32039;BMP280;18549;42.286;22.688;2023-06-24T06:48:44;95707.47;;;26.32
32039;BMP280;18549;42.286;22.688;2023-06-24T06:51:12;95706.28;;;26.35
32039;BMP280;18549;42.286;22.688;2023-06-24T06:53:39;95709.81;;;26.40
32039;BMP280;18549;42.286;22.688;2023-06-24T06:56:08;95702.03;;;26.48
32039;BMP280;18549;42.286;22.688;2023-06-24T06:58:36;95700.31;;;26.55
32039;BMP280;18549;42.286;22.688;2023-06-24T07:01:04;95693.84;;;26.59
32039;BMP280;18549;42.286;22.688;2023-06-24T07:03:31;95696.06;;;26.68
32039;BMP280;18549;42.286;22.688;2023-06-24T07:05:58;95691.94;;;26.74
32039;BMP280;18549;42.286;22.688;2023-06-24T07:08:26;95690.78;;;26.76
32039;BMP280;18549;42.286;22.688;2023-06-24T07:10:53;95690.19;;;26.74
32039;BMP280;18549;42.286;22.688;2023-06-24T07:13:22;95696.50;;;26.78
32039;BMP280;18549;42.286;22.688;2023-06-24T07:15:49;95692.00;;;26.80
32039;BMP280;18549;42.286;22.688;2023-06-24T07:18:16;95684.38;;;26.87
32039;BMP280;18549;42.286;22.688;2023-06-24T07:20:44;95690.84;;;26.89
32039;BMP280;18549;42.286;22.688;2023-06-24T07:23:11;95690.84;;;26.89
32039;BMP280;18549;42.286;22.688;2023-06-24T07:25:38;95695.13;;;26.95
32039;BMP280;18549;42.286;22.688;2023-06-24T07:28:06;95697.69;;;27.01
32039;BMP280;18549;42.286;22.688;2023-06-24T07:30:35;95695.56;;;27.05
32039;BMP280;18549;42.286;22.688;2023-06-24T07:33:02;95685.00;;;27.08
32039;BMP280;18549;42.286;22.688;2023-06-24T07:35:31;95685.78;;;27.15
32039;BMP280;18549;42.286;22.688;2023-06-24T07:37:58;95680.88;;;27.19
32039;BMP280;18549;42.286;22.688;2023-06-24T07:40:26;95687.34;;;27.28
32039;BMP280;18549;42.286;22.688;2023-06-24T07:42:53;95691.84;;;27.33
32039;BMP280;18549;42.286;22.688;2023-06-24T07:45:21;95689.53;;;27.38
32039;BMP280;18549;42.286;22.688;2023-06-24T07:47:50;95685.41;;;27.43
32039;BMP280;18549;42.286;22.688;2023-06-24T07:50:18;95681.09;;;27.50
32039;BMP280;18549;42.286;22.688;2023-06-24T07:52:45;95683.03;;;27.61
32039;BMP280;18549;42.286;22.688;2023-06-24T07:55:13;95681.09;;;27.63
32039;BMP280;18549;42.286;22.688;2023-06-24T07:57:45;95681.69;;;27.65
32039;BMP280;18549;42.286;22.688;2023-06-24T08:00:13;95669.72;;;27.72
32039;BMP280;18549;42.286;22.688;2023-06-24T08:02:41;95671.66;;;27.83
32039;BMP280;18549;42.286;22.688;2023-06-24T08:05:10;95668.91;;;27.97
32039;BMP280;18549;42.286;22.688;2023-06-24T08:07:37;95668.88;;;28.03
32039;BMP280;18549;42.286;22.688;2023-06-24T08:10:05;95672.19;;;28.10
32039;BMP280;18549;42.286;22.688;2023-06-24T08:12:33;95672.53;;;28.20
32039;BMP280;18549;42.286;22.688;2023-06-24T08:15:00;95665.66;;;28.27
32039;BMP280;18549;42.286;22.688;2023-06-24T08:17:27;95658.16;;;28.32
32039;BMP280;18549;42.286;22.688;2023-06-24T08:19:55;95659.34;;;28.36
32039;BMP280;18549;42.286;22.688;2023-06-24T08:22:24;95659.69;;;28.46
32039;BMP280;18549;42.286;22.688;2023-06-24T08:24:51;95657.13;;;28.46
32039;BMP280;18549;42.286;22.688;2023-06-24T08:27:18;95656.53;;;28.44
32039;BMP280;18549;42.286;22.688;2023-06-24T08:29:45;95654.56;;;28.46
32039;BMP280;18549;42.286;22.688;2023-06-24T08:32:13;95650.06;;;28.54
32039;BMP280;18549;42.286;22.688;2023-06-24T08:34:40;95656.50;;;28.63
32039;BMP280;18549;42.286;22.688;2023-06-24T08:37:07;95647.81;;;28.70
32039;BMP280;18549;42.286;22.688;2023-06-24T08:39:36;95647.75;;;28.77
32039;BMP280;18549;42.286;22.688;2023-06-24T08:42:05;95637.88;;;28.87
32039;BMP280;18549;42.286;22.688;2023-06-24T08:44:32;95636.06;;;28.93
32039;BMP280;18549;42.286;22.688;2023-06-24T08:46:59;95625.03;;;28.99
32039;BMP280;18549;42.286;22.688;2023-06-24T08:49:29;95628.31;;;29.06
32039;BMP280;18549;42.286;22.688;2023-06-24T08:52:00;95634.97;;;29.14
32039;BMP280;18549;42.286;22.688;2023-06-24T08:54:30;95628.47;;;29.18
32039;BMP280;18549;42.286;22.688;2023-06-24T08:57:00;95635.84;;;29.25
32039;BMP280;18549;42.286;22.688;2023-06-24T08:59:30;95636.78;;;29.31
32039;BMP280;18549;42.286;22.688;2023-06-24T09:01:58;95638.28;;;29.38
32039;BMP280;18549;42.286;22.688;2023-06-24T09:04:25;95634.37;;;29.36
32039;BMP280;18549;42.286;22.688;2023-06-24T09:06:53;95634.78;;;29.33
32039;BMP280;18549;42.286;22.688;2023-06-24T09:09:22;95633.75;;;29.40
32039;BMP280;18549;42.286;22.688;2023-06-24T09:11:53;95628.38;;;29.48
32039;BMP280;18549;42.286;22.688;2023-06-24T09:14:22;95627.69;;;29.59
32039;BMP280;18549;42.286;22.688;2023-06-24T09:16:54;95626.78;;;29.71
32039;BMP280;18549;42.286;22.688;2023-06-24T09:19:22;95633.97;;;29.81
32039;BMP280;18549;42.286;22.688;2023-06-24T09:21:50;95628.84;;;29.81
32039;BMP280;18549;42.286;22.688;2023-06-24T09:24:18;95627.34;;;29.73
32039;BMP280;18549;42.286;22.688;2023-06-24T09:26:46;95625.00;;;29.89
32039;BMP280;18549;42.286;22.688;2023-06-24T09:29:13;95626.53;;;29.97
32039;BMP280;18549;42.286;22.688;2023-06-24T09:31:49;95621.25;;;30.10
32039;BMP280;18549;42.286;22.688;2023-06-24T09:34:18;95632.75;;;30.19
32039;BMP280;18549;42.286;22.688;2023-06-24T09:36:51;95626.37;;;30.27
32039;BMP280;18549;42.286;22.688;2023-06-24T09:39:18;95624.13;;;30.31
32039;BMP280;18549;42.286;22.688;2023-06-24T09:41:49;95617.28;;;30.31
32039;BMP280;18549;42.286;22.688;2023-06-24T09:44:17;95619.41;;;30.34
32039;BMP280;18549;42.286;22.688;2023-06-24T09:46:45;95620.41;;;30.33
32039;BMP280;18549;42.286;22.688;2023-06-24T09:49:14;95620.00;;;30.48
32039;BMP280;18549;42.286;22.688;2023-06-24T09:51:44;95605.91;;;30.56
32039;BMP280;18549;42.286;22.688;2023-06-24T09:54:13;95596.13;;;30.65
32039;BMP280;18549;42.286;22.688;2023-06-24T09:56:43;95588.37;;;30.71
32039;BMP280;18549;42.286;22.688;2023-06-24T09:59:12;95584.03;;;30.72
32039;BMP280;18549;42.286;22.688;2023-06-24T10:01:41;95583.62;;;30.75
32039;BMP280;18549;42.286;22.688;2023-06-24T10:04:12;95583.41;;;30.76
32039;BMP280;18549;42.286;22.688;2023-06-24T10:06:43;95574.41;;;30.85
32039;BMP280;18549;42.286;22.688;2023-06-24T10:09:11;95580.28;;;30.86
32039;BMP280;18549;42.286;22.688;2023-06-24T10:11:42;95577.44;;;30.93
32039;BMP280;18549;42.286;22.688;2023-06-24T10:14:10;95564.06;;;31.03
32039;BMP280;18549;42.286;22.688;2023-06-24T10:16:38;95568.31;;;31.09
32039;BMP280;18549;42.286;22.688;2023-06-24T10:19:05;95561.84;;;31.18
32039;BMP280;18549;42.286;22.688;2023-06-24T10:21:47;95558.75;;;31.16
32039;BMP280;18549;42.286;22.688;2023-06-24T10:24:28;95546.47;;;31.18
32039;BMP280;18549;42.286;22.688;2023-06-24T10:27:01;95550.06;;;31.17
32039;BMP280;18549;42.286;22.688;2023-06-24T10:29:33;95543.50;;;31.21
32039;BMP280;18549;42.286;22.688;2023-06-24T10:32:05;95550.84;;;31.28
32039;BMP280;18549;42.286;22.688;2023-06-24T10:34:38;95552.28;;;31.36
32039;BMP280;18549;42.286;22.688;2023-06-24T10:37:14;95562.31;;;31.49
32039;BMP280;18549;42.286;22.688;2023-06-24T10:39:46;95561.53;;;31.48
32039;BMP280;18549;42.286;22.688;2023-06-24T10:42:38;95565.91;;;31.36
32039;BMP280;18549;42.286;22.688;2023-06-24T10:45:15;95549.59;;;31.20
32039;BMP280;18549;42.286;22.688;2023-06-24T10:47:44;95539.69;;;31.12
32039;BMP280;18549;42.286;22.688;2023-06-24T10:50:13;95521.31;;;30.92
32039;BMP280;18549;42.286;22.688;2023-06-24T10:52:43;95517.66;;;30.88
32039;BMP280;18549;42.286;22.688;2023-06-24T10:55:13;95514.88;;;30.78
32039;BMP280;18549;42.286;22.688;2023-06-24T10:57:41;95510.63;;;30.72
32039;BMP280;18549;42.286;22.688;2023-06-24T11:00:10;95510.94;;;30.64
32039;BMP280;18549;42.286;22.688;2023-06-24T11:02:37;95515.47;;;30.62
32039;BMP280;18549;42.286;22.688;2023-06-24T11:05:05;95523.59;;;30.59
32039;BMP280;18549;42.286;22.688;2023-06-24T11:07:36;95529.19;;;30.56
32039;BMP280;18549;42.286;22.688;2023-06-24T11:10:06;95540.06;;;30.52
32039;BMP280;18549;42.286;22.688;2023-06-24T11:12:35;95539.94;;;30.47
32039;BMP280;18549;42.286;22.688;2023-06-24T11:15:04;95543.69;;;30.45
32039;BMP280;18549;42.286;22.688;2023-06-24T11:17:33;95555.78;;;30.38
32039;BMP280;18549;42.286;22.688;2023-06-24T11:20:00;95568.69;;;30.31
32039;BMP280;18549;42.286;22.688;2023-06-24T11:22:28;95558.56;;;30.25
32039;BMP280;18549;42.286;22.688;2023-06-24T11:24:56;95570.00;;;30.23
32039;BMP280;18549;42.286;22.688;2023-06-24T11:27:29;95554.84;;;30.21
32039;BMP280;18549;42.286;22.688;2023-06-24T11:29:58;95544.69;;;30.15
32039;BMP280;18549;42.286;22.688;2023-06-24T11:32:35;95543.13;;;30.14
32039;BMP280;18549;42.286;22.688;2023-06-24T11:35:03;95536.75;;;30.05
32039;BMP280;18549;42.286;22.688;2023-06-24T11:37:31;95534.22;;;30.05
32039;BMP280;18549;42.286;22.688;2023-06-24T11:40:03;95534.72;;;29.95
32039;BMP280;18549;42.286;22.688;2023-06-24T11:42:35;95529.25;;;29.92
32039;BMP280;18549;42.286;22.688;2023-06-24T11:45:04;95532.81;;;29.91
32039;BMP280;18549;42.286;22.688;2023-06-24T11:47:32;95522.81;;;29.89
32039;BMP280;18549;42.286;22.688;2023-06-24T11:50:01;95525.47;;;29.83
32039;BMP280;18549;42.286;22.688;2023-06-24T11:52:39;95517.63;;;29.78
32039;BMP280;18549;42.286;22.688;2023-06-24T11:55:16;95527.72;;;29.73
32039;BMP280;18549;42.286;22.688;2023-06-24T11:57:53;95509.19;;;29.60
32039;BMP280;18549;42.286;22.688;2023-06-24T12:00:21;95504.87;;;29.60
32039;BMP280;18549;42.286;22.688;2023-06-24T12:02:56;95489.75;;;29.59
32039;BMP280;18549;42.286;22.688;2023-06-24T12:05:24;95485.84;;;29.56
32039;BMP280;18549;42.286;22.688;2023-06-24T12:07:58;95479.81;;;29.51
32039;BMP280;18549;42.286;22.688;2023-06-24T12:10:26;95466.78;;;29.41
32039;BMP280;18549;42.286;22.688;2023-06-24T12:12:56;95463.97;;;29.49
32039;BMP280;18549;42.286;22.688;2023-06-24T12:15:24;95458.97;;;29.54
32039;BMP280;18549;42.286;22.688;2023-06-24T12:17:51;95453.38;;;29.46
32039;BMP280;18549;42.286;22.688;2023-06-24T12:20:19;95454.16;;;29.46
32039;BMP280;18549;42.286;22.688;2023-06-24T12:22:46;95455.94;;;29.46
32039;BMP280;18549;42.286;22.688;2023-06-24T12:25:14;95452.47;;;29.40
32039;BMP280;18549;42.286;22.688;2023-06-24T12:27:42;95454.59;;;29.43
32039;BMP280;18549;42.286;22.688;2023-06-24T12:30:12;95464.03;;;29.43
32039;BMP280;18549;42.286;22.688;2023-06-24T12:32:39;95484.22;;;29.44
32039;BMP280;18549;42.286;22.688;2023-06-24T12:35:07;95492.69;;;29.45
32039;BMP280;18549;42.286;22.688;2023-06-24T12:37:36;95516.44;;;29.45
32039;BMP280;18549;42.286;22.688;2023-06-24T12:40:05;95539.84;;;29.42
32039;BMP280;18549;42.286;22.688;2023-06-24T12:42:32;95549.78;;;29.50
32039;BMP280;18549;42.286;22.688;2023-06-24T12:45:00;95563.47;;;29.55
32039;BMP280;18549;42.286;22.688;2023-06-24T12:47:29;95566.94;;;29.61
32039;BMP280;18549;42.286;22.688;2023-06-24T12:49:56;95543.69;;;29.69
32039;BMP280;18549;42.286;22.688;2023-06-24T12:52:24;95523.62;;;29.72
32039;BMP280;18549;42.286;22.688;2023-06-24T12:54:51;95513.41;;;29.72
32039;BMP280;18549;42.286;22.688;2023-06-24T12:57:18;95509.06;;;29.73
32039;BMP280;18549;42.286;22.688;2023-06-24T12:59:46;95511.25;;;29.69
32039;BMP280;18549;42.286;22.688;2023-06-24T13:02:13;95523.81;;;29.71
32039;BMP280;18549;42.286;22.688;2023-06-24T13:04:41;95528.88;;;29.77
32039;BMP280;18549;42.286;22.688;2023-06-24T13:07:09;95526.66;;;29.81
32039;BMP280;18549;42.286;22.688;2023-06-24T13:09:36;95528.50;;;29.74
32039;BMP280;18549;42.286;22.688;2023-06-24T13:12:04;95525.31;;;29.78
32039;BMP280;18549;42.286;22.688;2023-06-24T13:14:33;95534.09;;;29.82
32039;BMP280;18549;42.286;22.688;2023-06-24T13:17:01;95533.03;;;29.89
32039;BMP280;18549;42.286;22.688;2023-06-24T13:19:29;95546.59;;;29.90
32039;BMP280;18549;42.286;22.688;2023-06-24T13:21:59;95563.91;;;29.88
32039;BMP280;18549;42.286;22.688;2023-06-24T13:24:26;95559.78;;;29.87
32039;BMP280;18549;42.286;22.688;2023-06-24T13:26:54;95553.34;;;29.85
32039;BMP280;18549;42.286;22.688;2023-06-24T13:29:21;95563.22;;;29.81
32039;BMP280;18549;42.286;22.688;2023-06-24T13:31:48;95560.22;;;29.84
32039;BMP280;18549;42.286;22.688;2023-06-24T13:34:15;95561.56;;;29.87
32039;BMP280;18549;42.286;22.688;2023-06-24T13:36:43;95557.22;;;29.87
32039;BMP280;18549;42.286;22.688;2023-06-24T13:39:12;95550.91;;;29.89
32039;BMP280;18549;42.286;22.688;2023-06-24T13:41:43;95543.69;;;29.87
32039;BMP280;18549;42.286;22.688;2023-06-24T13:44:11;95544.25;;;29.88
32039;BMP280;18549;42.286;22.688;2023-06-24T13:46:38;95549.16;;;29.90
32039;BMP280;18549;42.286;22.688;2023-06-24T13:49:05;95547.94;;;29.92
32039;BMP280;18549;42.286;22.688;2023-06-24T13:51:33;95554.47;;;29.88
32039;BMP280;18549;42.286;22.688;2023-06-24T13:54:00;95560.78;;;29.86
32039;BMP280;18549;42.286;22.688;2023-06-24T13:56:29;95561.22;;;29.83
32039;BMP280;18549;42.286;22.688;2023-06-24T13:58:57;95568.53;;;29.80
32039;BMP280;18549;42.286;22.688;2023-06-24T14:01:25;95568.41;;;29.75
32039;BMP280;18549;42.286;22.688;2023-06-24T14:03:55;95580.87;;;29.65
32039;BMP280;18549;42.286;22.688;2023-06-24T14:06:23;95579.09;;;29.65
32039;BMP280;18549;42.286;22.688;2023-06-24T14:08:51;95582.28;;;29.61